createdAt,value
2023-03-03T00:01:26.061Z,69.89
2023-03-03T00:03:52.794Z,69.25
2023-03-03T00:06:20.383Z,69.97
2023-03-03T00:08:46.692Z,70.37
2023-03-03T00:11:13.319Z,69.32
2023-03-03T00:13:45.835Z,69.36
2023-03-03T00:16:25.224Z,69.58
2023-03-03T00:18:53.061Z,69.78
2023-03-03T00:21:25.579Z,69.62
2023-03-03T00:23:52.732Z,69.35
2023-03-03T00:26:39.355Z,70.46
2023-03-03T00:29:31.883Z,70.36
2023-03-03T00:32:19.204Z,70.32
2023-03-03T00:34:46.142Z,70.58
2023-03-03T00:37:31.693Z,70.50
2023-03-03T00:40:23.934Z,71.08
2023-03-03T00:42:55.508Z,71.28
2023-03-03T00:45:30.817Z,71.80
2023-03-03T00:47:58.814Z,71.98
2023-03-03T00:50:27.470Z,72.80
2023-03-03T00:53:01.520Z,72.23
2023-03-03T00:55:28.759Z,73.46
2023-03-03T00:57:55.278Z,74.80
2023-03-03T01:00:26.615Z,73.90
2023-03-03T01:02:53.299Z,73.12
2023-03-03T01:05:21.082Z,75.13
2023-03-03T01:07:48.217Z,74.73
2023-03-03T01:10:14.614Z,73.53
2023-03-03T01:12:41.316Z,73.54
2023-03-03T01:15:10.722Z,72.91
2023-03-03T01:17:38.502Z,73.32
2023-03-03T01:20:05.202Z,72.93
2023-03-03T01:22:31.591Z,76.53
2023-03-03T01:24:59.962Z,76.62
2023-03-03T01:27:28.467Z,76.06
2023-03-03T01:29:56.496Z,75.87
2023-03-03T01:32:24.490Z,75.97
2023-03-03T01:34:51.082Z,76.84
2023-03-03T01:37:17.454Z,76.12
2023-03-03T01:39:48.346Z,75.55
2023-03-03T01:42:15.690Z,74.26
2023-03-03T01:44:43.988Z,77.18
2023-03-03T01:47:25.436Z,78.91
2023-03-03T01:49:58.503Z,77.51
2023-03-03T01:52:30.374Z,77.91
2023-03-03T01:55:02.536Z,79.63
2023-03-03T01:57:33.614Z,80.64
2023-03-03T02:00:02.269Z,79.35
2023-03-03T02:02:41.709Z,77.55
2023-03-03T02:05:08.637Z,77.00
2023-03-03T02:07:36.077Z,77.86
2023-03-03T02:10:08.952Z,77.95
2023-03-03T02:12:45.343Z,77.82
2023-03-03T02:15:22.436Z,79.74
2023-03-03T02:17:53.480Z,78.73
2023-03-03T02:20:38.238Z,76.56
2023-03-03T02:23:29.466Z,77.00
2023-03-03T02:25:58.727Z,77.59
2023-03-03T02:28:35.179Z,76.63
2023-03-03T02:31:08.332Z,77.16
2023-03-03T02:33:34.731Z,78.13
2023-03-03T02:36:01.073Z,78.53
2023-03-03T02:38:36.401Z,76.88
2023-03-03T02:41:27.934Z,77.20
2023-03-03T02:44:07.731Z,74.72
2023-03-03T02:46:37.202Z,77.53
2023-03-03T02:49:05.314Z,75.83
2023-03-03T02:51:32.316Z,75.51
2023-03-03T02:53:58.677Z,74.97
2023-03-03T02:56:28.035Z,75.35
2023-03-03T02:58:54.526Z,74.54
2023-03-03T03:01:21.510Z,74.90
2023-03-03T03:03:48.904Z,76.78
2023-03-03T03:06:19.548Z,77.17
2023-03-03T03:08:46.794Z,78.30
2023-03-03T03:11:13.169Z,77.12
2023-03-03T03:13:40.028Z,77.65
2023-03-03T03:16:06.987Z,75.82
2023-03-03T03:18:33.311Z,76.59
2023-03-03T03:21:11.669Z,76.44
2023-03-03T03:23:39.873Z,75.76
2023-03-03T03:26:07.535Z,76.71
2023-03-03T03:28:34.650Z,76.80
2023-03-03T03:31:02.205Z,75.80
2023-03-03T03:33:28.654Z,77.44
2023-03-03T03:35:56.835Z,77.87
2023-03-03T03:38:26.818Z,78.09
2023-03-03T03:40:54.581Z,77.88
2023-03-03T03:43:22.389Z,77.37
2023-03-03T03:45:49.297Z,78.43
2023-03-03T03:48:17.486Z,78.15
2023-03-03T03:50:47.994Z,78.37
2023-03-03T03:53:14.966Z,80.76
2023-03-03T03:55:41.393Z,79.91
2023-03-03T03:58:08.779Z,77.68
2023-03-03T04:00:35.264Z,77.87
2023-03-03T04:03:02.027Z,76.57
2023-03-03T04:05:28.598Z,76.80
2023-03-03T04:07:55.806Z,76.11
2023-03-03T04:10:22.180Z,76.79
2023-03-03T04:12:48.541Z,76.85
2023-03-03T04:15:15.607Z,78.03
2023-03-03T04:17:43.098Z,77.22
2023-03-03T04:20:13.641Z,78.64
2023-03-03T04:22:40.031Z,77.49
2023-03-03T04:25:07.295Z,78.78
2023-03-03T04:27:39.134Z,78.30
2023-03-03T04:30:07.127Z,78.30
2023-03-03T04:32:33.962Z,80.43
2023-03-03T04:35:08.088Z,79.41
2023-03-03T04:37:37.730Z,79.72
2023-03-03T04:40:07.748Z,79.29
2023-03-03T04:42:35.367Z,78.08
2023-03-03T04:45:03.187Z,78.25
2023-03-03T04:47:30.395Z,78.51
2023-03-03T04:49:56.933Z,80.11
2023-03-03T04:52:23.475Z,78.69
2023-03-03T04:54:49.894Z,78.13
2023-03-03T04:57:16.707Z,79.90
2023-03-03T04:59:43.702Z,80.43
2023-03-03T05:02:10.180Z,80.12
2023-03-03T05:04:36.513Z,80.09
2023-03-03T05:07:03.248Z,79.82
2023-03-03T05:09:29.609Z,79.77
2023-03-03T05:11:56.157Z,80.02
2023-03-03T05:14:22.847Z,80.35
2023-03-03T05:16:49.306Z,81.24
2023-03-03T05:19:15.639Z,81.54
2023-03-03T05:21:42.279Z,80.62
2023-03-03T05:24:12.966Z,81.96
2023-03-03T05:26:39.997Z,82.75
2023-03-03T05:29:06.905Z,81.68
2023-03-03T05:31:33.304Z,81.86
2023-03-03T05:33:59.638Z,79.75
2023-03-03T05:36:25.960Z,78.59
2023-03-03T05:38:52.283Z,79.98
2023-03-03T05:41:18.698Z,79.14
2023-03-03T05:43:45.227Z,79.76
2023-03-03T05:46:11.983Z,79.88
2023-03-03T05:48:38.309Z,82.43
2023-03-03T05:51:05.028Z,81.94
2023-03-03T05:53:31.320Z,79.73
2023-03-03T05:55:57.937Z,80.70
2023-03-03T05:58:24.241Z,80.71
2023-03-03T06:00:50.535Z,81.76
2023-03-03T06:03:17.065Z,81.67
2023-03-03T06:05:43.638Z,80.61
2023-03-03T06:08:10.099Z,81.30
2023-03-03T06:10:36.612Z,83.10
2023-03-03T06:13:05.836Z,82.94
2023-03-03T06:15:32.344Z,83.19
2023-03-03T06:17:58.710Z,80.83
2023-03-03T06:20:25.183Z,81.99
2023-03-03T06:22:51.502Z,81.83
2023-03-03T06:25:18.219Z,83.10
2023-03-03T06:27:44.538Z,82.05
2023-03-03T06:30:12.741Z,81.02
2023-03-03T06:32:39.474Z,81.86
2023-03-03T06:35:06.205Z,81.67
2023-03-03T06:37:32.516Z,80.72
2023-03-03T06:39:58.971Z,81.13
2023-03-03T06:42:25.266Z,82.14
2023-03-03T06:44:51.599Z,82.09
2023-03-03T06:47:17.953Z,84.88
2023-03-03T06:49:44.278Z,86.58
2023-03-03T06:52:28.546Z,88.78
2023-03-03T06:54:57.860Z,90.52
2023-03-03T06:57:29.993Z,94.06
2023-03-03T07:00:14.275Z,95.63
2023-03-03T07:02:41.263Z,98.16
2023-03-03T07:05:14.893Z,97.12
2023-03-03T07:07:41.287Z,97.73
2023-03-03T07:10:17.825Z,97.84
2023-03-03T07:12:44.169Z,96.37
2023-03-03T07:15:30.066Z,97.51
2023-03-03T07:17:59.659Z,97.56
2023-03-03T07:20:39.564Z,99.31
2023-03-03T07:23:23.104Z,100.00
2023-03-03T07:25:49.484Z,99.92
2023-03-03T07:28:24.296Z,100.00
2023-03-03T07:30:52.383Z,100.00
2023-03-03T07:33:29.168Z,100.00
2023-03-03T07:35:58.208Z,100.00
2023-03-03T07:38:35.389Z,100.00
2023-03-03T07:41:05.141Z,100.00
2023-03-03T07:43:48.397Z,100.00
2023-03-03T07:46:23.095Z,100.00
2023-03-03T07:48:51.915Z,100.00
2023-03-03T07:51:29.108Z,100.00
2023-03-03T07:54:29.038Z,100.00
2023-03-03T07:57:19.324Z,100.00
2023-03-03T08:00:01.157Z,100.00
2023-03-03T08:02:38.484Z,100.00
2023-03-03T08:05:32.215Z,100.00
2023-03-03T08:08:10.111Z,100.00
2023-03-03T08:10:44.527Z,100.00
2023-03-03T08:13:38.400Z,100.00
2023-03-03T08:16:07.873Z,100.00
2023-03-03T08:18:47.811Z,100.00
2023-03-03T08:21:16.327Z,100.00
2023-03-03T08:23:42.637Z,100.00
2023-03-03T08:26:09.552Z,100.00
2023-03-03T08:28:35.850Z,100.00
2023-03-03T08:31:15.267Z,100.00
2023-03-03T08:33:46.828Z,99.77
2023-03-03T08:36:13.540Z,100.00
2023-03-03T08:38:40.454Z,99.56
2023-03-03T08:41:06.842Z,99.20
2023-03-03T08:43:33.235Z,99.68
2023-03-03T08:46:01.906Z,100.00
2023-03-03T08:48:28.954Z,98.07
2023-03-03T08:50:55.497Z,98.89
2023-03-03T08:53:22.893Z,98.58
2023-03-03T08:55:49.623Z,98.66
2023-03-03T08:58:18.384Z,98.06
2023-03-03T09:00:48.325Z,97.81
2023-03-03T09:03:15.644Z,97.39
2023-03-03T09:05:42.063Z,96.83
2023-03-03T09:08:10.595Z,97.23
2023-03-03T09:10:36.930Z,97.03
2023-03-03T09:13:11.175Z,95.66
2023-03-03T09:15:38.469Z,95.86
2023-03-03T09:18:22.559Z,96.11
2023-03-03T09:20:50.728Z,95.49
2023-03-03T09:23:33.570Z,94.11
2023-03-03T09:26:30.247Z,92.80
2023-03-03T09:29:14.911Z,94.30
2023-03-03T09:32:08.628Z,91.92
2023-03-03T09:34:42.361Z,93.36
2023-03-03T09:37:47.188Z,92.25
2023-03-03T09:40:44.203Z,91.31
2023-03-03T09:43:37.345Z,90.65
2023-03-03T09:46:23.680Z,90.61
2023-03-03T09:49:01.913Z,91.46
2023-03-03T09:51:53.308Z,90.01
2023-03-03T09:54:34.812Z,90.88
2023-03-03T09:57:27.360Z,89.21
2023-03-03T10:00:44.566Z,90.84
2023-03-03T10:03:39.022Z,89.27
2023-03-03T10:06:17.870Z,89.25
2023-03-03T10:08:52.799Z,88.03
2023-03-03T10:11:26.951Z,87.44
2023-03-03T10:14:04.169Z,85.12
2023-03-03T10:17:01.428Z,87.06
2023-03-03T10:19:39.940Z,87.62
2023-03-03T10:22:20.324Z,87.08
2023-03-03T10:25:02.577Z,86.11
2023-03-03T10:27:53.645Z,87.20
2023-03-03T10:30:39.829Z,86.36
2023-03-03T10:33:42.739Z,84.25
2023-03-03T10:36:31.021Z,85.78
2023-03-03T10:39:24.487Z,84.49
2023-03-03T10:42:09.542Z,84.70
2023-03-03T10:45:02.242Z,84.13
2023-03-03T10:47:40.080Z,81.16
2023-03-03T10:50:24.914Z,77.29
2023-03-03T10:53:03.500Z,76.25
2023-03-03T10:55:42.544Z,74.73
2023-03-03T10:58:24.022Z,73.12
2023-03-03T11:01:24.637Z,69.83
2023-03-03T11:04:10.030Z,66.34
2023-03-03T11:07:07.654Z,65.61
2023-03-03T11:09:50.638Z,63.54
2023-03-03T11:12:25.724Z,63.14
2023-03-03T11:15:03.678Z,62.74
2023-03-03T11:17:53.234Z,59.83
2023-03-03T11:20:29.043Z,59.50
2023-03-03T11:23:26.673Z,59.90
2023-03-03T11:26:09.105Z,58.30
2023-03-03T11:29:07.942Z,58.61
2023-03-03T11:32:27.285Z,57.49
2023-03-03T11:35:04.940Z,58.17
2023-03-03T11:38:05.774Z,57.25
2023-03-03T11:40:53.520Z,57.04
2023-03-03T11:43:38.053Z,55.02
2023-03-03T11:46:11.501Z,54.61
2023-03-03T11:48:47.395Z,54.63
2023-03-03T11:51:31.559Z,55.00
2023-03-03T11:54:03.967Z,54.24
2023-03-03T11:56:39.497Z,52.91
2023-03-03T11:59:13.567Z,52.72
2023-03-03T12:01:49.444Z,53.24
2023-03-03T12:04:22.198Z,52.49
2023-03-03T12:07:19.578Z,52.06
2023-03-03T12:09:53.477Z,52.02
2023-03-03T12:12:27.475Z,52.05
2023-03-03T12:15:15.612Z,51.99
2023-03-03T12:18:08.518Z,53.43
2023-03-03T12:21:16.143Z,53.13
2023-03-03T12:23:58.542Z,51.36
2023-03-03T12:26:32.413Z,50.90
2023-03-03T12:29:06.899Z,50.75
2023-03-03T12:32:00.472Z,48.34
2023-03-03T12:34:39.254Z,47.84
2023-03-03T12:37:21.893Z,47.02
2023-03-03T12:39:50.929Z,45.72
2023-03-03T12:42:49.676Z,46.49
2023-03-03T12:45:34.751Z,45.25
2023-03-03T12:48:13.280Z,43.49
2023-03-03T12:50:48.501Z,42.74
2023-03-03T12:53:26.943Z,43.16
2023-03-03T12:55:59.808Z,43.20
2023-03-03T12:58:35.093Z,42.90
2023-03-03T13:01:22.649Z,42.33
2023-03-03T13:03:57.902Z,41.08
2023-03-03T13:06:31.033Z,40.65
2023-03-03T13:09:21.543Z,40.03
2023-03-03T13:12:03.414Z,38.79
2023-03-03T13:14:41.605Z,38.42
2023-03-03T13:17:17.727Z,38.78
2023-03-03T13:19:51.228Z,39.33
2023-03-03T13:22:46.583Z,38.45
2023-03-03T13:25:36.748Z,38.70
2023-03-03T13:28:14.035Z,37.55
2023-03-03T13:30:56.399Z,41.11
2023-03-03T13:33:22.711Z,44.68
2023-03-03T13:35:54.953Z,47.42
2023-03-03T13:38:32.546Z,49.46
2023-03-03T13:41:06.808Z,50.59
2023-03-03T13:43:44.404Z,53.55
2023-03-03T13:46:32.152Z,54.62
2023-03-03T13:49:19.893Z,56.59
2023-03-03T13:52:09.743Z,57.39
2023-03-03T13:55:08.616Z,57.45
2023-03-03T13:58:16.551Z,57.25
2023-03-03T14:00:42.838Z,57.49
2023-03-03T14:03:09.085Z,58.27
2023-03-03T14:05:37.203Z,59.64
2023-03-03T14:08:31.013Z,58.97
2023-03-03T14:11:12.176Z,58.45
2023-03-03T14:13:47.707Z,59.26
2023-03-03T14:16:22.679Z,58.63
2023-03-03T14:19:01.588Z,58.64
2023-03-03T14:21:47.724Z,58.59
2023-03-03T14:24:19.304Z,59.09
2023-03-03T14:27:00.073Z,58.63
2023-03-03T14:29:26.332Z,59.31
2023-03-03T14:31:56.694Z,59.82
2023-03-03T14:34:22.967Z,60.05
2023-03-03T14:36:53.846Z,59.50
2023-03-03T14:39:34.885Z,61.88
2023-03-03T14:42:05.247Z,61.99
2023-03-03T14:44:38.346Z,62.34
2023-03-03T14:47:10.370Z,62.49
2023-03-03T14:49:38.392Z,62.62
2023-03-03T14:52:17.305Z,62.73
2023-03-03T14:54:46.719Z,62.87
2023-03-03T14:57:45.842Z,63.19
2023-03-03T15:00:12.179Z,63.41
2023-03-03T15:02:43.456Z,63.36
2023-03-03T15:05:16.168Z,63.62
2023-03-03T15:07:42.849Z,63.97
2023-03-03T15:10:10.925Z,64.41
2023-03-03T15:12:40.499Z,64.49
2023-03-03T15:15:08.203Z,65.22
2023-03-03T15:17:57.209Z,64.94
2023-03-03T15:20:35.573Z,65.52
2023-03-03T15:23:39.833Z,65.54
2023-03-03T15:26:16.190Z,65.09
2023-03-03T15:28:54.508Z,65.65
2023-03-03T15:31:51.870Z,66.09
2023-03-03T15:34:54.075Z,65.98
2023-03-03T15:37:57.726Z,65.36
2023-03-03T15:40:30.358Z,66.34
2023-03-03T15:43:26.307Z,67.29
2023-03-03T15:46:06.238Z,67.71
2023-03-03T15:48:46.022Z,67.50
2023-03-03T15:51:30.554Z,67.91
2023-03-03T15:54:22.465Z,67.12
2023-03-03T15:56:51.577Z,67.86
2023-03-03T15:59:32.430Z,67.58
2023-03-03T16:02:16.059Z,67.64
2023-03-03T16:05:08.214Z,67.63
2023-03-03T16:07:46.372Z,66.93
2023-03-03T16:10:21.487Z,66.94
2023-03-03T16:12:55.464Z,67.24
2023-03-03T16:15:34.422Z,67.42
2023-03-03T16:18:39.361Z,67.75
2023-03-03T16:21:33.312Z,67.91
2023-03-03T16:24:29.394Z,67.84
2023-03-03T16:27:16.684Z,68.44
2023-03-03T16:30:08.428Z,67.09
2023-03-03T16:32:41.396Z,68.75
2023-03-03T16:35:24.271Z,68.86
2023-03-03T16:38:19.375Z,68.20
2023-03-03T16:40:53.675Z,68.05
2023-03-03T16:43:43.099Z,68.65
2023-03-03T16:46:42.718Z,68.38
2023-03-03T16:49:30.148Z,69.23
2023-03-03T16:52:07.297Z,68.89
2023-03-03T16:54:54.121Z,69.46
2023-03-03T16:57:26.351Z,69.23
2023-03-03T16:59:58.999Z,69.12
2023-03-03T17:02:52.882Z,69.49
2023-03-03T17:05:31.342Z,69.67
2023-03-03T17:08:16.657Z,70.09
2023-03-03T17:10:50.211Z,69.84
2023-03-03T17:13:49.107Z,69.80
2023-03-03T17:16:51.901Z,70.29
2023-03-03T17:19:40.168Z,70.49
2023-03-03T17:22:20.265Z,70.35
2023-03-03T17:24:52.755Z,70.82
2023-03-03T17:27:45.829Z,71.04
2023-03-03T17:30:27.220Z,71.67
2023-03-03T17:33:09.230Z,71.04
2023-03-03T17:35:40.111Z,71.55
2023-03-03T17:38:18.406Z,71.80
2023-03-03T17:41:09.534Z,70.66
2023-03-03T17:43:51.216Z,71.52
2023-03-03T17:46:39.915Z,72.43
2023-03-03T17:49:18.330Z,73.42
2023-03-03T17:52:14.690Z,72.35
2023-03-03T17:55:04.386Z,73.22
2023-03-03T17:57:49.538Z,73.77
2023-03-03T18:00:31.049Z,73.52
2023-03-03T18:03:17.545Z,73.49
2023-03-03T18:06:37.282Z,73.50
2023-03-03T18:09:16.765Z,74.05
2023-03-03T18:12:00.063Z,73.98
2023-03-03T18:14:49.385Z,74.41
2023-03-03T18:17:28.703Z,73.97
2023-03-03T18:20:12.554Z,74.04
2023-03-03T18:22:46.716Z,74.21
2023-03-03T18:25:16.476Z,75.08
2023-03-03T18:27:45.484Z,75.83
2023-03-03T18:30:17.688Z,76.36
2023-03-03T18:33:00.870Z,76.10
2023-03-03T18:35:33.223Z,75.17
2023-03-03T18:38:17.950Z,75.56
2023-03-03T18:40:56.355Z,76.26
2023-03-03T18:43:44.597Z,76.83
2023-03-03T18:46:20.207Z,77.88
2023-03-03T18:49:09.928Z,76.63
2023-03-03T18:51:39.280Z,77.13
2023-03-03T18:54:26.130Z,76.84
2023-03-03T18:56:52.415Z,76.97
2023-03-03T18:59:31.020Z,77.19
2023-03-03T19:02:12.737Z,76.69
2023-03-03T19:04:43.136Z,77.16
2023-03-03T19:07:39.779Z,78.69
2023-03-03T19:10:44.557Z,78.25
2023-03-03T19:13:32.813Z,77.77
2023-03-03T19:16:04.122Z,78.85
2023-03-03T19:18:42.709Z,78.57
2023-03-03T19:21:12.173Z,79.68
2023-03-03T19:24:00.433Z,79.25
2023-03-03T19:26:30.187Z,80.19
2023-03-03T19:29:36.554Z,79.45
2023-03-03T19:32:18.548Z,79.81
2023-03-03T19:35:06.250Z,79.75
2023-03-03T19:38:04.261Z,78.72
2023-03-03T19:40:41.355Z,78.79
2023-03-03T19:43:17.394Z,79.54
2023-03-03T19:46:06.574Z,78.79
2023-03-03T19:48:44.994Z,80.69
2023-03-03T19:51:25.406Z,80.69
2023-03-03T19:54:15.026Z,82.02
2023-03-03T19:56:49.942Z,81.87
2023-03-03T19:59:26.945Z,81.85
2023-03-03T20:02:13.469Z,81.47
2023-03-03T20:04:57.999Z,81.65
2023-03-03T20:07:29.820Z,81.01
2023-03-03T20:10:06.190Z,81.17
2023-03-03T20:12:59.649Z,81.11
2023-03-03T20:15:42.107Z,81.41
2023-03-03T20:18:25.941Z,81.81
2023-03-03T20:21:13.505Z,82.43
2023-03-03T20:23:54.745Z,81.22
2023-03-03T20:26:39.347Z,80.83
2023-03-03T20:29:27.080Z,80.90
2023-03-03T20:32:12.630Z,82.56
2023-03-03T20:35:05.246Z,82.76
2023-03-03T20:37:57.616Z,81.97
2023-03-03T20:40:50.605Z,83.24
2023-03-03T20:43:54.324Z,83.73
2023-03-03T20:46:27.442Z,83.20
2023-03-03T20:49:31.531Z,83.24
2023-03-03T20:52:32.126Z,82.05
2023-03-03T20:55:19.218Z,81.27
2023-03-03T20:57:56.648Z,81.14
2023-03-03T21:00:38.659Z,81.35
2023-03-03T21:03:20.811Z,81.81
2023-03-03T21:05:57.881Z,82.98
2023-03-03T21:08:53.756Z,83.00
2023-03-03T21:11:42.087Z,83.23
2023-03-03T21:14:30.908Z,83.70
2023-03-03T21:17:02.376Z,84.99
2023-03-03T21:19:33.846Z,83.59
2023-03-03T21:22:02.383Z,82.56
2023-03-03T21:24:49.305Z,83.34
2023-03-03T21:27:32.306Z,82.40
2023-03-03T21:30:12.802Z,82.60
2023-03-03T21:32:47.918Z,82.42
2023-03-03T21:35:21.968Z,82.84
2023-03-03T21:37:52.922Z,81.38
2023-03-03T21:40:26.460Z,81.64
2023-03-03T21:42:55.198Z,81.55
2023-03-03T21:45:21.712Z,82.50
2023-03-03T21:47:48.259Z,83.42
2023-03-03T21:50:14.920Z,82.07
2023-03-03T21:52:41.286Z,80.57
2023-03-03T21:55:08.500Z,81.09
2023-03-03T21:57:37.706Z,82.30
2023-03-03T22:00:06.357Z,83.95
2023-03-03T22:02:34.433Z,84.54
2023-03-03T22:05:03.028Z,84.85
2023-03-03T22:07:29.880Z,84.80
2023-03-03T22:09:56.266Z,84.55
2023-03-03T22:12:22.600Z,84.50
2023-03-03T22:14:49.275Z,85.08
2023-03-03T22:17:15.594Z,84.70
2023-03-03T22:19:41.881Z,84.71
2023-03-03T22:22:08.194Z,84.50
2023-03-03T22:24:34.503Z,85.41
2023-03-03T22:27:00.792Z,85.18
2023-03-03T22:29:27.194Z,84.45
2023-03-03T22:31:53.537Z,86.54
2023-03-03T22:34:19.917Z,86.92
2023-03-03T22:36:46.246Z,85.62
2023-03-03T22:39:12.568Z,85.02
2023-03-03T22:41:38.845Z,86.12
2023-03-03T22:44:05.235Z,86.19
2023-03-03T22:46:31.608Z,85.15
2023-03-03T22:48:57.954Z,83.88
2023-03-03T22:51:26.004Z,84.34
2023-03-03T22:53:52.318Z,83.44
2023-03-03T22:56:18.633Z,83.07
2023-03-03T22:58:44.998Z,82.38
2023-03-03T23:01:11.288Z,84.16
2023-03-03T23:03:37.664Z,84.83
2023-03-03T23:06:04.372Z,84.26
2023-03-03T23:08:30.693Z,84.34
2023-03-03T23:10:57.039Z,85.25
2023-03-03T23:13:25.017Z,84.20
2023-03-03T23:15:51.360Z,84.20
2023-03-03T23:18:17.683Z,84.55
2023-03-03T23:20:45.812Z,85.20
2023-03-03T23:23:12.463Z,85.26
2023-03-03T23:25:38.813Z,84.19
2023-03-03T23:28:05.452Z,84.15
2023-03-03T23:30:31.779Z,83.88
2023-03-03T23:32:58.096Z,84.51
2023-03-03T23:35:24.553Z,84.44
2023-03-03T23:37:50.892Z,85.29
2023-03-03T23:40:17.336Z,84.81
2023-03-03T23:42:44.182Z,84.29
2023-03-03T23:45:11.877Z,84.35
2023-03-03T23:47:38.322Z,84.40
2023-03-03T23:50:05.239Z,85.10
2023-03-03T23:52:31.915Z,84.04
2023-03-03T23:54:58.372Z,84.21
2023-03-03T23:57:24.854Z,83.87
2023-03-03T23:59:51.216Z,83.61
